createdAt,value
2023-04-07T00:00:04.689Z,101502.00
2023-04-07T00:02:32.446Z,101506.00
2023-04-07T00:04:59.385Z,101514.00
2023-04-07T00:07:26.269Z,101518.00
2023-04-07T00:09:53.051Z,101515.00
2023-04-07T00:12:19.788Z,101519.00
2023-04-07T00:14:46.561Z,101521.00
2023-04-07T00:17:13.293Z,101521.00
2023-04-07T00:19:40.016Z,101504.00
2023-04-07T00:22:06.737Z,101507.00
2023-04-07T00:24:34.859Z,101508.00
2023-04-07T00:27:02.122Z,101486.00
2023-04-07T00:29:28.949Z,101497.00
2023-04-07T00:31:56.058Z,101491.00
2023-04-07T00:34:22.830Z,101480.00
2023-04-07T00:36:52.263Z,101486.00
2023-04-07T00:39:19.923Z,101480.00
2023-04-07T00:41:47.311Z,101488.00
2023-04-07T00:44:14.237Z,101480.00
2023-04-07T00:46:41.563Z,101487.00
2023-04-07T00:49:10.628Z,101492.00
2023-04-07T00:51:38.058Z,101485.00
2023-04-07T00:54:05.501Z,101486.00
2023-04-07T00:56:32.395Z,101486.00
2023-04-07T00:58:59.127Z,101481.00
2023-04-07T01:01:30.916Z,101485.00
2023-04-07T01:04:25.685Z,101491.00
2023-04-07T01:06:54.301Z,101483.00
2023-04-07T01:09:31.593Z,101487.00
2023-04-07T01:12:14.177Z,101491.00
2023-04-07T01:14:45.873Z,101484.00
2023-04-07T01:17:13.385Z,101491.00
2023-04-07T01:19:44.624Z,101484.00
2023-04-07T01:22:15.400Z,101475.00
2023-04-07T01:25:19.339Z,101477.00
2023-04-07T01:28:18.423Z,101492.00
2023-04-07T01:30:45.971Z,101487.00
2023-04-07T01:33:14.204Z,101483.00
2023-04-07T01:35:41.526Z,101494.00
2023-04-07T01:38:08.718Z,101484.00
2023-04-07T01:40:36.522Z,101494.00
2023-04-07T01:43:03.638Z,101495.00
2023-04-07T01:45:31.177Z,101506.00
2023-04-07T01:47:58.134Z,101496.00
2023-04-07T01:50:26.163Z,101492.00
2023-04-07T01:52:53.546Z,101494.00
2023-04-07T01:55:21.341Z,101510.00
2023-04-07T01:57:48.073Z,101496.00
2023-04-07T02:00:14.946Z,101509.00
2023-04-07T02:02:44.655Z,101490.00
2023-04-07T02:05:14.944Z,101498.00
2023-04-07T02:07:53.681Z,101502.00
2023-04-07T02:10:23.782Z,101495.00
2023-04-07T02:12:51.709Z,101495.00
2023-04-07T02:15:19.028Z,101500.00
2023-04-07T02:17:52.014Z,101485.00
2023-04-07T02:20:20.070Z,101501.00
2023-04-07T02:22:47.143Z,101493.00
2023-04-07T02:25:23.139Z,101493.00
2023-04-07T02:27:50.044Z,101494.00
2023-04-07T02:30:17.159Z,101500.00
2023-04-07T02:32:43.973Z,101494.00
2023-04-07T02:35:12.144Z,101491.00
2023-04-07T02:37:39.516Z,101502.00
2023-04-07T02:40:06.946Z,101503.00
2023-04-07T02:42:33.841Z,101515.00
2023-04-07T02:45:00.924Z,101495.00
2023-04-07T02:47:27.707Z,101503.00
2023-04-07T02:49:54.554Z,101501.00
2023-04-07T02:52:21.402Z,101503.00
2023-04-07T02:54:48.257Z,101494.00
2023-04-07T02:57:15.618Z,101511.00
2023-04-07T02:59:42.454Z,101510.00
2023-04-07T03:02:09.397Z,101503.00
2023-04-07T03:04:36.479Z,101492.00
2023-04-07T03:07:03.408Z,101490.00
2023-04-07T03:09:30.602Z,101491.00
2023-04-07T03:11:58.432Z,101488.00
2023-04-07T03:14:25.259Z,101488.00
2023-04-07T03:16:52.152Z,101502.00
2023-04-07T03:19:19.001Z,101511.00
2023-04-07T03:21:45.831Z,101507.00
2023-04-07T03:24:12.752Z,101498.00
2023-04-07T03:26:39.592Z,101499.00
2023-04-07T03:29:06.519Z,101501.00
2023-04-07T03:31:33.374Z,101498.00
2023-04-07T03:34:00.319Z,101502.00
2023-04-07T03:36:28.214Z,101513.00
2023-04-07T03:38:55.365Z,101508.00
2023-04-07T03:41:22.171Z,101498.00
2023-04-07T03:43:49.094Z,101512.00
2023-04-07T03:46:16.309Z,101500.00
2023-04-07T03:48:43.112Z,101504.00
2023-04-07T03:51:09.906Z,101503.00
2023-04-07T03:53:37.400Z,101509.00
2023-04-07T03:56:04.750Z,101519.00
2023-04-07T03:58:31.624Z,101503.00
2023-04-07T04:00:58.544Z,101513.00
2023-04-07T04:03:25.592Z,101505.00
2023-04-07T04:05:52.630Z,101515.00
2023-04-07T04:08:20.379Z,101511.00
2023-04-07T04:10:47.231Z,101519.00
2023-04-07T04:13:14.040Z,101536.00
2023-04-07T04:15:40.991Z,101523.00
2023-04-07T04:18:08.739Z,101531.00
2023-04-07T04:20:35.882Z,101542.00
2023-04-07T04:23:02.701Z,101529.00
2023-04-07T04:25:29.515Z,101532.00
2023-04-07T04:27:56.377Z,101522.00
2023-04-07T04:30:23.182Z,101549.00
2023-04-07T04:32:50.317Z,101566.00
2023-04-07T04:35:17.308Z,101559.00
2023-04-07T04:37:44.171Z,101556.00
2023-04-07T04:40:11.805Z,101559.00
2023-04-07T04:42:38.656Z,101561.00
2023-04-07T04:45:06.075Z,101558.00
2023-04-07T04:47:32.977Z,101557.00
2023-04-07T04:49:59.904Z,101565.00
2023-04-07T04:52:27.287Z,101561.00
2023-04-07T04:54:55.250Z,101568.00
2023-04-07T04:57:22.026Z,101559.00
2023-04-07T04:59:48.899Z,101577.00
2023-04-07T05:02:15.868Z,101574.00
2023-04-07T05:04:42.939Z,101575.00
2023-04-07T05:07:09.839Z,101576.00
2023-04-07T05:09:36.655Z,101574.00
2023-04-07T05:12:03.517Z,101585.00
2023-04-07T05:14:30.354Z,101575.00
2023-04-07T05:16:57.276Z,101581.00
2023-04-07T05:19:24.133Z,101570.00
2023-04-07T05:21:50.936Z,101580.00
2023-04-07T05:24:17.710Z,101600.00
2023-04-07T05:26:44.523Z,101596.00
2023-04-07T05:29:11.338Z,101595.00
2023-04-07T05:31:38.183Z,101584.00
2023-04-07T05:34:05.751Z,101596.00
2023-04-07T05:36:33.791Z,101605.00
2023-04-07T05:39:00.615Z,101612.00
2023-04-07T05:41:27.736Z,101614.00
2023-04-07T05:43:54.539Z,101616.00
2023-04-07T05:46:21.401Z,101619.00
2023-04-07T05:48:48.268Z,101623.00
2023-04-07T05:51:15.624Z,101632.00
2023-04-07T05:53:42.459Z,101649.00
2023-04-07T05:56:09.345Z,101651.00
2023-04-07T05:58:36.202Z,101666.00
2023-04-07T06:01:03.042Z,101666.00
2023-04-07T06:03:30.023Z,101682.00
2023-04-07T06:05:58.537Z,101682.00
2023-04-07T06:08:25.430Z,101691.00
2023-04-07T06:10:52.374Z,101702.00
2023-04-07T06:13:19.256Z,101703.00
2023-04-07T06:15:46.252Z,101717.00
2023-04-07T06:18:13.042Z,101705.00
2023-04-07T06:20:39.931Z,101722.00
2023-04-07T06:23:06.737Z,101726.00
2023-04-07T06:25:33.603Z,101734.00
2023-04-07T06:28:00.415Z,101739.00
2023-04-07T06:30:27.234Z,101742.00
2023-04-07T06:32:54.041Z,101745.00
2023-04-07T06:35:21.180Z,101751.00
2023-04-07T06:37:48.174Z,101762.00
2023-04-07T06:40:15.341Z,101749.00
2023-04-07T06:42:42.237Z,101765.00
2023-04-07T06:45:09.809Z,101775.00
2023-04-07T06:47:36.678Z,101761.00
2023-04-07T06:50:03.801Z,101784.00
2023-04-07T06:52:30.627Z,101796.00
2023-04-07T06:54:57.592Z,101779.00
2023-04-07T06:57:24.617Z,101792.00
2023-04-07T06:59:51.555Z,101805.00
2023-04-07T07:02:18.630Z,101803.00
2023-04-07T07:04:45.599Z,101798.00
2023-04-07T07:07:12.425Z,101808.00
2023-04-07T07:09:39.285Z,101809.00
2023-04-07T07:12:06.405Z,101813.00
2023-04-07T07:14:33.334Z,101813.00
2023-04-07T07:17:00.168Z,101820.00
2023-04-07T07:19:27.272Z,101831.00
2023-04-07T07:21:55.461Z,101826.00
2023-04-07T07:24:22.302Z,101831.00
2023-04-07T07:26:49.092Z,101840.00
2023-04-07T07:29:15.967Z,101816.00
2023-04-07T07:31:43.276Z,101844.00
2023-04-07T07:34:10.080Z,101844.00
2023-04-07T07:36:36.908Z,101871.00
2023-04-07T07:39:04.046Z,101871.00
2023-04-07T07:41:30.902Z,101877.00
2023-04-07T07:43:57.746Z,101884.00
2023-04-07T07:46:26.227Z,101873.00
2023-04-07T07:48:53.241Z,101895.00
2023-04-07T07:51:20.063Z,101889.00
2023-04-07T07:53:48.323Z,101911.00
2023-04-07T07:56:15.542Z,101895.00
2023-04-07T07:58:42.353Z,101915.00
2023-04-07T08:01:09.212Z,101910.00
2023-04-07T08:03:36.204Z,101908.00
2023-04-07T08:06:03.206Z,101909.00
2023-04-07T08:08:30.141Z,101925.00
2023-04-07T08:10:56.926Z,101942.00
2023-04-07T08:13:23.741Z,101920.00
2023-04-07T08:15:50.757Z,101939.00
2023-04-07T08:18:17.653Z,101943.00
2023-04-07T08:20:44.502Z,101943.00
2023-04-07T08:23:11.304Z,101918.00
2023-04-07T08:25:40.095Z,101937.00
2023-04-07T08:28:06.960Z,101959.00
2023-04-07T08:30:33.843Z,101937.00
2023-04-07T08:33:00.905Z,101934.00
2023-04-07T08:35:27.857Z,101938.00
2023-04-07T08:37:55.076Z,101943.00
2023-04-07T08:40:22.034Z,101939.00
2023-04-07T08:42:49.318Z,101953.00
2023-04-07T08:45:17.826Z,101937.00
2023-04-07T08:47:46.593Z,101932.00
2023-04-07T08:50:15.808Z,101952.00
2023-04-07T08:52:48.404Z,101949.00
2023-04-07T08:55:15.462Z,101957.00
2023-04-07T08:57:43.221Z,101951.00
2023-04-07T09:00:10.900Z,101943.00
2023-04-07T09:02:39.822Z,101960.00
2023-04-07T09:05:09.042Z,101952.00
2023-04-07T09:07:37.500Z,101964.00
2023-04-07T09:10:05.012Z,101939.00
2023-04-07T09:12:32.197Z,101942.00
2023-04-07T09:14:59.030Z,101935.00
2023-04-07T09:17:27.201Z,101927.00
2023-04-07T09:19:57.084Z,101926.00
2023-04-07T09:22:45.742Z,101915.00
2023-04-07T09:25:18.211Z,101923.00
2023-04-07T09:28:14.399Z,101921.00
2023-04-07T09:30:52.278Z,101932.00
2023-04-07T09:33:26.608Z,101920.00
2023-04-07T09:35:53.833Z,101922.00
2023-04-07T09:38:20.713Z,101888.00
2023-04-07T09:40:48.455Z,101907.00
2023-04-07T09:43:17.168Z,101927.00
2023-04-07T09:45:44.168Z,101899.00
2023-04-07T09:48:20.188Z,101910.00
2023-04-07T09:50:51.857Z,101913.00
2023-04-07T09:53:23.278Z,101907.00
2023-04-07T09:55:50.405Z,101898.00
2023-04-07T09:58:17.420Z,101908.00
2023-04-07T10:00:44.304Z,101906.00
2023-04-07T10:03:11.220Z,101928.00
2023-04-07T10:05:38.832Z,101925.00
2023-04-07T10:08:06.695Z,101922.00
2023-04-07T10:10:34.569Z,101906.00
2023-04-07T10:13:04.718Z,101905.00
2023-04-07T10:15:31.581Z,101900.00
2023-04-07T10:17:58.842Z,101940.00
2023-04-07T10:20:26.217Z,101919.00
2023-04-07T10:22:55.515Z,101917.00
2023-04-07T10:25:24.472Z,101953.00
2023-04-07T10:27:58.244Z,101929.00
2023-04-07T10:30:33.516Z,101948.00
2023-04-07T10:33:00.463Z,101960.00
2023-04-07T10:35:28.438Z,101955.00
2023-04-07T10:38:07.896Z,101930.00
2023-04-07T10:40:35.907Z,101927.00
2023-04-07T10:43:03.151Z,101933.00
2023-04-07T10:45:56.178Z,101953.00
2023-04-07T10:48:23.622Z,101969.00
2023-04-07T10:51:06.120Z,101960.00
2023-04-07T12:10:41.517Z,101983.00
2023-04-07T12:13:09.341Z,101981.00
2023-04-07T12:15:37.486Z,101965.00
2023-04-07T12:18:04.430Z,101982.00
2023-04-07T12:20:31.515Z,101940.00
2023-04-07T12:23:00.056Z,101944.00
2023-04-07T12:25:27.592Z,101947.00
2023-04-07T12:27:54.561Z,101938.00
2023-04-07T12:30:21.600Z,101998.00
2023-04-07T12:32:49.005Z,101968.00
2023-04-07T12:35:15.910Z,101972.00
2023-04-07T12:37:42.773Z,101976.00
2023-04-07T12:40:09.783Z,101961.00
2023-04-07T12:42:36.770Z,101941.00
2023-04-07T12:45:03.778Z,101960.00
2023-04-07T12:47:32.166Z,101954.00
2023-04-07T12:49:59.106Z,101953.00
2023-04-07T12:52:25.951Z,101948.00
2023-04-07T12:54:53.501Z,101943.00
2023-04-07T12:57:20.758Z,101951.00
2023-04-07T12:59:47.597Z,101939.00
2023-04-07T13:02:14.759Z,101951.00
2023-04-07T13:04:43.689Z,101949.00
2023-04-07T13:07:10.539Z,101936.00
2023-04-07T13:09:37.426Z,101923.00
2023-04-07T13:12:04.259Z,101910.00
2023-04-07T13:14:31.167Z,101910.00
2023-04-07T13:16:58.599Z,101906.00
2023-04-07T13:19:25.789Z,101915.00
2023-04-07T13:21:52.728Z,101900.00
2023-04-07T13:24:21.597Z,101898.00
2023-04-07T13:26:48.876Z,101891.00
2023-04-07T13:29:16.986Z,101894.00
2023-04-07T13:31:46.107Z,101900.00
2023-04-07T13:34:13.688Z,101902.00
2023-04-07T13:36:41.404Z,101901.00
2023-04-07T13:39:09.057Z,101907.00
2023-04-07T13:41:36.195Z,101923.00
2023-04-07T13:44:03.440Z,101930.00
2023-04-07T13:46:30.320Z,101940.00
2023-04-07T13:48:57.280Z,101937.00
2023-04-07T13:51:24.181Z,101944.00
2023-04-07T13:53:51.287Z,101940.00
2023-04-07T13:56:18.200Z,101933.00
2023-04-07T13:58:45.049Z,101912.00
2023-04-07T14:01:12.042Z,101906.00
2023-04-07T14:03:39.054Z,101914.00
2023-04-07T14:06:06.389Z,101910.00
2023-04-07T14:08:33.226Z,101923.00
2023-04-07T14:11:00.060Z,101924.00
2023-04-07T14:13:27.156Z,101943.00
2023-04-07T14:15:54.085Z,101913.00
2023-04-07T14:18:21.118Z,101905.00
2023-04-07T14:20:48.006Z,101893.00
2023-04-07T14:23:20.656Z,101892.00
2023-04-07T14:25:53.317Z,101870.00
2023-04-07T14:28:21.182Z,101864.00
2023-04-07T14:30:48.326Z,101871.00
2023-04-07T14:33:17.347Z,101864.00
2023-04-07T14:35:44.297Z,101861.00
2023-04-07T14:38:11.225Z,101864.00
2023-04-07T14:40:38.025Z,101859.00
2023-04-07T14:43:07.793Z,101855.00
2023-04-07T14:45:35.728Z,101861.00
2023-04-07T14:48:02.802Z,101870.00
2023-04-07T14:50:34.874Z,101870.00
2023-04-07T14:53:02.306Z,101869.00
2023-04-07T14:55:30.908Z,101865.00
2023-04-07T14:57:58.176Z,101859.00
2023-04-07T15:00:27.178Z,101844.00
2023-04-07T15:02:54.621Z,101849.00
2023-04-07T15:05:23.054Z,101858.00
2023-04-07T15:07:50.855Z,101861.00
2023-04-07T15:10:18.503Z,101851.00
2023-04-07T15:12:51.730Z,101852.00
2023-04-07T15:15:18.649Z,101865.00
2023-04-07T15:17:45.672Z,101855.00
2023-04-07T15:20:13.068Z,101850.00
2023-04-07T15:22:40.325Z,101853.00
2023-04-07T15:25:07.925Z,101848.00
2023-04-07T15:27:34.817Z,101850.00
2023-04-07T15:30:01.622Z,101849.00
2023-04-07T15:32:31.121Z,101854.00
2023-04-07T15:34:57.976Z,101842.00
2023-04-07T15:37:25.360Z,101848.00
2023-04-07T15:39:52.387Z,101855.00
2023-04-07T15:42:19.251Z,101865.00
2023-04-07T15:44:46.295Z,101854.00
2023-04-07T15:47:13.170Z,101851.00
2023-04-07T15:49:41.391Z,101852.00
2023-04-07T15:52:08.283Z,101863.00
2023-04-07T15:54:35.037Z,101855.00
2023-04-07T15:57:01.905Z,101843.00
2023-04-07T15:59:31.014Z,101855.00
2023-04-07T16:01:58.532Z,101847.00
2023-04-07T16:04:25.512Z,101849.00
2023-04-07T16:06:52.400Z,101847.00
2023-04-07T16:09:19.214Z,101848.00
2023-04-07T16:11:46.118Z,101852.00
2023-04-07T16:14:12.902Z,101844.00
2023-04-07T16:16:41.429Z,101857.00
2023-04-07T16:19:08.380Z,101854.00
2023-04-07T16:21:35.239Z,101858.00
2023-04-07T16:24:02.033Z,101858.00
2023-04-07T16:26:28.865Z,101857.00
2023-04-07T16:28:55.687Z,101871.00
2023-04-07T16:31:22.568Z,101862.00
2023-04-07T16:33:50.992Z,101871.00
2023-04-07T16:36:17.976Z,101863.00
2023-04-07T16:38:45.089Z,101870.00
2023-04-07T19:38:41.829Z,102001.00
2023-04-07T19:41:08.658Z,101991.00
2023-04-07T19:43:35.477Z,102010.00
2023-04-07T19:46:03.654Z,102002.00
2023-04-07T19:48:30.684Z,101997.00
2023-04-07T19:50:57.668Z,102009.00
2023-04-07T19:53:26.158Z,102005.00
2023-04-07T19:55:53.054Z,102009.00
2023-04-07T19:58:21.974Z,102005.00
2023-04-07T20:00:50.725Z,102017.00
2023-04-07T20:03:18.602Z,102016.00
2023-04-07T20:05:45.660Z,102027.00
2023-04-07T20:08:12.465Z,102026.00
2023-04-07T20:10:39.288Z,102020.00
2023-04-07T20:13:06.580Z,102019.00
2023-04-07T20:15:33.402Z,102034.00
2023-04-07T20:18:00.410Z,102020.00
2023-04-07T20:20:27.646Z,102022.00
2023-04-07T20:22:54.415Z,102025.00
2023-04-07T20:25:21.381Z,102033.00
2023-04-07T20:27:50.015Z,102024.00
2023-04-07T20:30:16.925Z,102035.00
2023-04-07T20:32:45.015Z,102038.00
2023-04-07T20:35:12.081Z,102046.00
2023-04-07T20:37:38.935Z,102032.00
2023-04-07T20:40:07.549Z,102043.00
2023-04-07T20:42:34.680Z,102053.00
2023-04-07T20:45:04.057Z,102045.00
2023-04-07T20:47:31.869Z,102051.00
2023-04-07T20:49:58.781Z,102047.00
2023-04-07T20:52:27.263Z,102051.00
2023-04-07T20:54:54.235Z,102054.00
2023-04-07T20:57:21.056Z,102055.00
2023-04-07T20:59:48.931Z,102056.00
2023-04-07T21:02:15.936Z,102052.00
2023-04-07T21:04:43.084Z,102057.00
2023-04-07T21:07:10.569Z,102055.00
2023-04-07T21:09:39.161Z,102059.00
2023-04-07T21:12:05.950Z,102064.00
2023-04-07T21:14:32.950Z,102067.00
2023-04-07T21:16:59.778Z,102057.00
2023-04-07T21:19:27.798Z,102064.00
2023-04-07T21:21:54.744Z,102065.00
2023-04-07T21:24:23.065Z,102079.00
2023-04-07T21:26:52.947Z,102071.00
2023-04-07T21:29:21.713Z,102064.00
2023-04-07T21:31:48.983Z,102083.00
2023-04-07T21:34:16.113Z,102076.00
2023-04-07T21:36:43.609Z,102075.00
2023-04-07T21:39:10.755Z,102075.00
2023-04-07T21:41:37.631Z,102077.00
2023-04-07T21:44:09.311Z,102076.00
2023-04-07T21:46:38.027Z,102074.00
2023-04-07T21:49:06.034Z,102063.00
2023-04-07T21:51:33.734Z,102071.00
2023-04-07T21:54:00.914Z,102065.00
2023-04-07T21:56:28.979Z,102064.00
2023-04-07T21:58:56.245Z,102067.00
2023-04-07T22:01:23.046Z,102065.00
2023-04-07T22:03:49.912Z,102061.00
2023-04-07T22:06:17.057Z,102068.00
2023-04-07T22:08:48.909Z,102068.00
2023-04-07T22:11:27.678Z,102063.00
2023-04-07T22:13:54.556Z,102051.00
2023-04-07T22:16:21.443Z,102060.00
2023-04-07T22:18:48.572Z,102058.00
2023-04-07T22:21:15.652Z,102059.00
2023-04-07T22:23:42.454Z,102056.00
2023-04-07T22:26:10.498Z,102055.00
2023-04-07T22:28:37.358Z,102058.00
2023-04-07T22:31:04.537Z,102068.00
2023-04-07T22:33:31.681Z,102063.00
2023-04-07T22:35:58.628Z,102077.00
2023-04-07T22:38:25.575Z,102067.00
2023-04-07T22:40:52.368Z,102072.00
2023-04-07T22:43:19.192Z,102071.00
2023-04-07T22:45:46.289Z,102065.00
2023-04-07T22:48:13.250Z,102065.00
2023-04-07T22:50:40.124Z,102058.00
2023-04-07T22:53:07.394Z,102066.00
2023-04-07T22:55:34.774Z,102062.00
2023-04-07T22:58:01.773Z,102061.00
2023-04-07T23:00:28.784Z,102068.00
2023-04-07T23:02:55.893Z,102068.00
2023-04-07T23:05:22.908Z,102070.00
2023-04-07T23:07:51.501Z,102064.00
2023-04-07T23:10:18.366Z,102058.00
2023-04-07T23:12:45.197Z,102066.00
2023-04-07T23:15:12.158Z,102062.00
2023-04-07T23:17:39.319Z,102054.00
2023-04-07T23:20:07.022Z,102050.00
2023-04-07T23:22:33.790Z,102055.00
2023-04-07T23:25:01.112Z,102049.00
2023-04-07T23:27:27.912Z,102050.00
2023-04-07T23:29:54.736Z,102050.00
2023-04-07T23:32:21.579Z,102059.00
2023-04-07T23:34:48.398Z,102047.00
2023-04-07T23:37:15.461Z,102053.00
2023-04-07T23:39:42.231Z,102045.00
2023-04-07T23:42:09.428Z,102038.00
2023-04-07T23:44:36.453Z,102050.00
2023-04-07T23:47:03.315Z,102029.00
2023-04-07T23:49:30.153Z,102033.00
2023-04-07T23:51:56.950Z,102040.00
2023-04-07T23:54:23.751Z,102035.00
2023-04-07T23:56:50.541Z,102038.00
2023-04-07T23:59:17.348Z,102027.00
